Time;durP1;ratioP1;P1;durP2;ratioP2;P2;SDS_P1;SDS_P2;PMS_P1;PMS_P2;Temp;Humidity;BMP_temperature;BMP_pressure;BME280_temperature;BME280_humidity;BME280_pressure;Samples;Min_cycle;Max_cycle;Signal;HPM_P1;HPM_P2
2022/05/30 00:01:50;;;;;;;;;;;;;;;;;;;;;
2022/05/30 00:04:59;;;;;;;7.90;2.80;;;;;;;8.66;55.73;98458.55;105586;1282;22790;-82
2022/05/30 00:08:23;;;;;;;;;;;;;;;;;;;;;
2022/05/30 00:11:42;;;;;;;;;;;;;;;;;;;;;
2022/05/30 00:15:22;;;;;;;;;;;;;;;;;;;;;
2022/05/30 00:18:34;;;;;;;7.60;2.60;;;;;;;8.64;56.00;98460.96;104250;1294;22721;-82
2022/05/30 00:21:52;;;;;;;7.40;2.30;;;;;;;8.69;56.07;98459.39;104077;1297;23953;-82
2022/05/30 00:24:37;;;;;;;;;;;;;;;;;;;;;
2022/05/30 00:28:33;;;;;;;6.60;2.30;;;;;;;8.72;56.08;98460.96;104662;1287;25368;-81
2022/05/30 00:31:43;;;;;;;;;;;;;;;;;;;;;
2022/05/30 00:34:20;;;;;;;6.30;2.10;;;;;;;8.84;56.33;98457.91;105064;1287;24239;-82
2022/05/30 00:37:03;;;;;;;;;;;;;;;;;;;;;
2022/05/30 00:40:06;;;;;;;6.90;1.80;;;;;;;8.88;56.11;98453.20;105053;1288;24229;-85
2022/05/30 00:44:08;;;;;;;;;;;;;;;;;;;;;
2022/05/30 00:46:52;;;;;;;5.90;1.90;;;;;;;8.87;55.99;98445.61;104274;1294;25326;-80
2022/05/30 00:50:23;;;;;;;;;;;;;;;;;;;;;
2022/05/30 00:53:41;;;;;;;;;;;;;;;;;;;;;
2022/05/30 00:57:19;;;;;;;5.90;1.80;;;;;;;8.83;56.43;98449.27;104721;1287;24295;-82
2022/05/30 01:00:10;;;;;;;;;;;;;;;;;;;;;
2022/05/30 01:07:28;;;;;;;7.80;1.60;;;;;;;8.88;56.43;98440.02;104397;1293;25270;-80
2022/05/30 01:10:11;;;;;;;;;;;;;;;;;;;;;
2022/05/30 01:17:24;;;;;;;;;;;;;;;;;;;;;
2022/05/30 01:20:37;;;;;;;5.50;1.90;;;;;;;9.05;56.50;98439.66;104886;1288;22716;-83
2022/05/30 01:24:46;;;;;;;;;;;;;;;;;;;;;
2022/05/30 01:28:32;;;;;;;;;;;;;;;;;;;;;
2022/05/30 01:31:45;;;;;;;7.10;1.60;;;;;;;8.97;56.42;98432.46;104352;1294;24301;-80
2022/05/30 01:34:52;;;;;;;5.60;1.60;;;;;;;8.96;56.33;98434.98;104184;1294;22569;-82
2022/05/30 01:37:46;;;;;;;6.80;1.80;;;;;;;8.97;56.43;98424.30;104555;1287;22697;-82
2022/05/30 01:40:26;;;;;;;5.80;1.70;;;;;;;8.98;56.66;98426.69;104536;1288;22540;-85
2022/05/30 01:43:02;;;;;;;5.80;1.60;;;;;;;8.98;57.01;98422.10;104943;1288;25386;-85
2022/05/30 01:45:47;;;;;;;6.10;1.70;;;;;;;8.95;56.84;98423.31;104584;1288;25326;-79
2022/05/30 01:48:37;;;;;;;;;;;;;;;;;;;;;
2022/05/30 01:51:41;;;;;;;5.20;1.50;;;;;;;8.98;56.78;98418.89;104884;1288;22532;-83
2022/05/30 01:55:12;;;;;;;;;;;;;;;;;;;;;
2022/05/30 01:58:38;;;;;;;;;;;;;;;;;;;;;
2022/05/30 02:01:42;;;;;;;5.80;1.60;;;;;;;9.06;57.06;98410.60;105355;1284;24232;-85
2022/05/30 02:04:33;;;;;;;8.80;1.60;;;;;;;8.99;57.07;98404.58;105456;1284;22718;-81
2022/05/30 02:07:52;;;;;;;9.70;1.60;;;;;;;8.90;57.20;98404.55;105357;1282;22497;-80
2022/05/30 02:11:00;;;;;;;;;;;;;;;;;;;;;
2022/05/30 02:14:16;;;;;;;;;;;;;;;;;;;;;
2022/05/30 02:17:25;;;;;;;12.10;2.40;;;;;;;8.77;57.51;98404.48;105596;1282;24419;-86
2022/05/30 02:20:13;;;;;;;14.00;3.30;;;;;;;8.72;57.42;98407.48;105230;1283;22799;-80
2022/05/30 02:22:54;;;;;;;14.80;3.50;;;;;;;8.68;57.56;98405.36;105461;1284;22865;-84
2022/05/30 02:25:46;;;;;;;;;;;;;;;;;;;;;
2022/05/30 02:28:29;;;;;;;9.70;2.70;;;;;;;8.63;57.76;98401.10;105333;1282;22628;-81
2022/05/30 02:31:04;;;;;;;9.20;2.40;;;;;;;8.63;57.76;98406.93;105421;1284;22554;-84
2022/05/30 02:37:33;;;;;;;6.80;1.70;;;;;;;8.67;57.86;98411.09;105788;1278;25479;-81
2022/05/30 02:40:05;;;;;;;;;;;;;;;;;;;;;
2022/05/30 02:43:53;;;;;;;;;;;;;;;;;;;;;
2022/05/30 02:47:11;;;;;;;6.70;1.70;;;;;;;8.67;57.95;98413.23;105400;1285;25635;-83
2022/05/30 02:50:24;;;;;;;5.60;1.80;;;;;;;8.70;58.03;98416.23;105432;1284;23429;-84
2022/05/30 02:54:00;;;;;;;5.50;1.70;;;;;;;8.70;57.96;98417.98;105290;1285;22701;-84
2022/05/30 02:57:10;;;;;;;4.30;1.50;;;;;;;8.69;58.15;98421.81;105410;1284;25632;-79
2022/05/30 03:00:26;;;;;;;;;;;;;;;;;;;;;
2022/05/30 03:03:30;;;;;;;6.20;1.90;;;;;;;8.70;58.40;98424.38;105454;1284;25560;-87
2022/05/30 03:06:31;;;;;;;7.50;1.70;;;;;;;8.72;58.28;98430.45;105424;1285;24311;-85
2022/05/30 03:09:02;;;;;;;5.30;1.60;;;;;;;8.77;58.29;98428.58;105463;1284;25318;-81
2022/05/30 03:12:14;;;;;;;8.00;1.60;;;;;;;8.82;58.25;98430.01;105365;1284;25511;-83
2022/05/30 03:15:09;;;;;;;5.50;1.60;;;;;;;8.89;58.20;98429.50;105614;1276;25397;-79
2022/05/30 03:18:03;;;;;;;;;;;;;;;;;;;;;
2022/05/30 03:21:01;;;;;;;;;;;;;;;;;;;;;
2022/05/30 03:24:02;;;;;;;6.30;1.60;;;;;;;9.05;58.39;98427.40;105883;1278;22544;-80
2022/05/30 03:27:37;;;;;;;5.10;1.60;;;;;;;9.13;58.49;98430.33;105773;1278;23491;-80
2022/05/30 03:30:58;;;;;;;4.90;1.70;;;;;;;9.18;58.49;98435.66;105671;1277;25403;-79
2022/05/30 03:33:29;;;;;;;5.70;1.90;;;;;;;9.17;58.49;98442.12;105863;1277;22791;-80
2022/05/30 03:36:12;;;;;;;;;;;;;;;;;;;;;
2022/05/30 03:39:48;;;;;;;;;;;;;;;;;;;;;
2022/05/30 03:43:03;;;;;;;7.30;1.60;;;;;;;9.31;58.76;98449.91;105699;1281;22583;-86
2022/05/30 03:46:45;;;;;;;8.00;1.70;;;;;;;9.37;58.76;98454.60;105556;1281;22562;-85
2022/05/30 03:49:26;;;;;;;;;;;;;;;;;;;;;
2022/05/30 03:52:10;;;;;;;;;;;;;;;;;;;;;
2022/05/30 03:54:55;;;;;;;;;;;;;;;;;;;;;
2022/05/30 03:57:43;;;;;;;7.60;1.80;;;;;;;9.44;58.58;98466.14;105620;1281;25525;-84
2022/05/30 04:00:46;;;;;;;;;;;;;;;;;;;;;
2022/05/30 04:03:51;;;;;;;5.00;1.60;;;;;;;9.51;58.71;98463.48;105664;1281;24282;-82
2022/05/30 04:07:29;;;;;;;7.20;1.60;;;;;;;9.55;58.86;98466.75;105569;1281;22574;-81
2022/05/30 04:10:11;;;;;;;6.20;1.50;;;;;;;9.55;58.87;98469.77;105095;1287;25528;-79
2022/05/30 04:13:45;;;;;;;8.80;1.60;;;;;;;9.50;59.04;98470.52;104676;1290;22612;-78
2022/05/30 04:17:38;;;;;;;4.20;1.50;;;;;;;9.43;59.01;98469.39;105193;1286;22573;-81
2022/05/30 04:20:20;;;;;;;;;;;;;;;;;;;;;
2022/05/30 04:23:56;;;;;;;5.40;1.20;;;;;;;9.38;59.03;98471.08;105168;1284;25543;-79
2022/05/30 04:27:08;;;;;;;;;;;;;;;;;;;;;
2022/05/30 04:29:47;;;;;;;4.40;1.40;;;;;;;9.43;59.45;98479.35;105521;1284;24286;-86
2022/05/30 04:32:49;;;;;;;7.70;2.00;;;;;;;9.45;59.52;98478.35;105250;1284;25348;-79
2022/05/30 04:35:58;;;;;;;;;;;;;;;;;;;;;
2022/05/30 04:38:41;;;;;;;7.90;2.30;;;;;;;9.38;59.62;98480.08;105182;1284;24256;-78
2022/05/30 04:42:10;;;;;;;;;;;;;;;;;;;;;
2022/05/30 04:45:30;;;;;;;6.90;2.40;;;;;;;9.30;59.74;98486.41;105021;1284;22588;-82
2022/05/30 04:49:13;;;;;;;7.60;2.40;;;;;;;9.25;59.94;98487.14;105861;1278;22577;-83
2022/05/30 04:52:05;;;;;;;6.10;2.10;;;;;;;9.20;60.12;98487.48;105915;1277;22829;-81
2022/05/30 04:55:12;;;;;;;8.00;2.00;;;;;;;9.24;60.30;98486.56;105809;1277;24256;-84
2022/05/30 04:58:30;;;;;;;;;;;;;;;;;;;;;
2022/05/30 05:01:27;;;;;;;8.20;2.60;;;;;;;9.31;60.32;98490.94;105944;1277;22561;-79
2022/05/30 05:04:19;;;;;;;;;;;;;;;;;;;;;
2022/05/30 05:07:45;;;;;;;;;;;;;;;;;;;;;
2022/05/30 05:11:17;;;;;;;7.80;2.60;;;;;;;9.23;60.77;98506.83;105969;1275;22561;-80
2022/05/30 05:14:22;;;;;;;7.60;2.60;;;;;;;9.16;60.82;98509.48;106014;1274;24226;-85
2022/05/30 05:18:13;;;;;;;;;;;;;;;;;;;;;
2022/05/30 05:21:33;;;;;;;;;;;;;;;;;;;;;
2022/05/30 05:24:51;;;;;;;7.70;2.40;;;;;;;9.07;61.17;98515.35;105482;1281;22566;-81
2022/05/30 05:28:36;;;;;;;8.40;2.50;;;;;;;9.10;61.44;98516.69;100845;1287;5379199;-80
2022/05/30 05:31:38;;;;;;;9.90;3.20;;;;;;;9.17;61.48;98516.50;104669;1290;25803;-81
2022/05/30 05:34:53;;;;;;;;;;;;;;;;;;;;;
2022/05/30 05:37:49;;;;;;;8.40;3.30;;;;;;;9.26;61.54;98517.27;104859;1291;22548;-84
2022/05/30 05:41:14;;;;;;;8.90;3.30;;;;;;;9.24;61.81;98520.64;104255;1291;22802;-85
2022/05/30 05:45:00;;;;;;;8.90;3.20;;;;;;;9.24;61.79;98523.47;104953;1289;22617;-82
2022/05/30 05:48:07;;;;;;;8.90;3.00;;;;;;;9.26;61.71;98527.92;104646;1287;22575;-81
2022/05/30 05:51:14;;;;;;;;;;;;;;;;;;;;;
2022/05/30 05:54:56;;;;;;;;;;;;;;;;;;;;;
2022/05/30 05:58:01;;;;;;;6.40;2.50;;;;;;;9.44;62.05;98527.25;105564;1284;22588;-86
2022/05/30 06:01:10;;;;;;;;;;;;;;;;;;;;;
2022/05/30 06:04:21;;;;;;;;;;;;;;;;;;;;;
2022/05/30 06:07:08;;;;;;;9.50;3.80;;;;;;;9.45;62.21;98526.61;105956;1274;22643;-82
2022/05/30 06:11:05;;;;;;;9.50;3.50;;;;;;;9.44;62.35;98527.77;105940;1274;25409;-82
2022/05/30 06:14:10;;;;;;;;;;;;;;;;;;;;;
2022/05/30 06:17:01;;;;;;;10.10;3.40;;;;;;;9.56;62.37;98528.69;106217;1273;22584;-83
2022/05/30 06:19:54;;;;;;;8.00;3.10;;;;;;;9.61;62.46;98528.45;106014;1275;24910;-84
2022/05/30 06:22:44;;;;;;;8.70;3.30;;;;;;;9.66;62.51;98528.56;105880;1273;25366;-82
2022/05/30 06:25:42;;;;;;;8.30;2.80;;;;;;;9.68;62.30;98527.73;105963;1274;25229;-82
2022/05/30 06:29:06;;;;;;;10.00;3.70;;;;;;;9.68;62.61;98530.55;106014;1274;22541;-86
2022/05/30 06:32:22;;;;;;;7.60;2.90;;;;;;;9.74;62.58;98534.77;106123;1274;24291;-85
2022/05/30 06:35:44;;;;;;;13.10;3.10;;;;;;;9.77;62.53;98531.33;105818;1277;22541;-85
2022/05/30 06:38:44;;;;;;;7.80;2.90;;;;;;;9.79;62.72;98533.11;105942;1274;24372;-81
2022/05/30 06:41:29;;;;;;;6.90;2.20;;;;;;;9.85;62.58;98539.19;105819;1274;25244;-83
2022/05/30 06:44:17;;;;;;;10.10;3.00;;;;;;;9.93;62.69;98539.50;105897;1275;24210;-82
2022/05/30 06:47:26;;;;;;;10.20;3.80;;;;;;;9.99;62.71;98541.52;105792;1274;24300;-83
2022/05/30 06:50:59;;;;;;;;;;;;;;;;;;;;;
2022/05/30 06:53:43;;;;;;;9.10;3.90;;;;;;;10.07;62.76;98548.35;106194;1273;23456;-83
2022/05/30 06:56:28;;;;;;;8.30;2.90;;;;;;;10.02;62.72;98552.67;106039;1274;24243;-82
2022/05/30 06:59:38;;;;;;;9.50;3.10;;;;;;;10.00;62.92;98551.52;105939;1274;23013;-85
2022/05/30 07:02:41;;;;;;;11.90;3.50;;;;;;;10.03;62.88;98549.89;106114;1273;22580;-83
2022/05/30 07:05:20;;;;;;;11.30;4.00;;;;;;;10.04;62.80;98551.06;106047;1274;24303;-82
2022/05/30 07:08:19;;;;;;;11.50;3.50;;;;;;;10.04;62.92;98550.34;105992;1273;25684;-83
2022/05/30 07:11:08;;;;;;;;;;;;;;;;;;;;;
2022/05/30 07:13:47;;;;;;;8.90;3.50;;;;;;;10.11;63.20;98553.02;105966;1273;25300;-82
2022/05/30 07:16:44;;;;;;;7.90;2.80;;;;;;;10.11;63.14;98550.73;105967;1275;22554;-85
2022/05/30 07:19:27;;;;;;;7.30;2.70;;;;;;;10.10;62.99;98549.91;105950;1274;25299;-83
2022/05/30 07:22:11;;;;;;;;;;;;;;;;;;;;;
2022/05/30 07:25:34;;;;;;;;;;;;;;;;;;;;;
2022/05/30 07:28:31;;;;;;;10.30;3.50;;;;;;;10.14;63.21;98546.54;106069;1274;22569;-83
2022/05/30 07:31:25;;;;;;;8.70;3.50;;;;;;;10.21;63.25;98549.21;105944;1274;23929;-80
2022/05/30 07:34:36;;;;;;;10.80;4.20;;;;;;;10.26;63.31;98546.90;105925;1274;24286;-83
2022/05/30 07:37:34;;;;;;;;;;;;;;;;;;;;;
2022/05/30 07:40:50;;;;;;;;;;;;;;;;;;;;;
2022/05/30 07:44:20;;;;;;;;;;;;;;;;;;;;;
2022/05/30 07:47:01;;;;;;;7.60;3.20;;;;;;;10.58;63.07;98542.77;105956;1276;24394;-81
2022/05/30 07:50:11;;;;;;;6.60;2.40;;;;;;;10.61;63.09;98548.55;105647;1281;22608;-83
2022/05/30 07:53:18;;;;;;;6.60;2.30;;;;;;;10.66;63.01;98549.02;105333;1282;25343;-81
2022/05/30 07:56:21;;;;;;;6.00;2.20;;;;;;;10.75;63.01;98550.77;105637;1281;24412;-83
2022/05/30 07:58:57;;;;;;;4.70;1.70;;;;;;;10.84;62.99;98552.77;105466;1282;25226;-81
2022/05/30 08:01:59;;;;;;;7.10;2.70;;;;;;;10.92;63.12;98555.69;105576;1283;25409;-80
2022/05/30 08:04:43;;;;;;;;;;;;;;;;;;;;;
2022/05/30 08:07:39;;;;;;;6.30;1.90;;;;;;;11.26;63.36;98556.61;105603;1281;26179;-84
2022/05/30 08:10:47;;;;;;;5.40;1.90;;;;;;;11.39;63.12;98557.33;105341;1282;25248;-81
2022/05/30 08:13:37;;;;;;;7.20;1.80;;;;;;;11.53;63.11;98561.11;105614;1281;24652;-81
2022/05/30 08:16:38;;;;;;;5.20;1.40;;;;;;;11.63;62.88;98560.61;105298;1281;25480;-84
2022/05/30 08:19:46;;;;;;;4.30;1.60;;;;;;;11.71;62.91;98557.11;105679;1282;22717;-79
2022/05/30 08:22:38;;;;;;;;;;;;;;;;;;;;;
2022/05/30 08:25:41;;;;;;;7.00;1.80;;;;;;;12.04;63.09;98562.11;105953;1273;22553;-85
2022/05/30 08:28:20;;;;;;;5.70;2.00;;;;;;;12.20;62.99;98562.70;106072;1274;24580;-83
2022/05/30 08:31:21;;;;;;;5.70;1.60;;;;;;;12.36;62.85;98563.14;105953;1273;22656;-84
2022/05/30 08:34:01;;;;;;;5.00;1.80;;;;;;;12.51;62.70;98559.52;106018;1273;22734;-82
2022/05/30 08:36:52;;;;;;;7.40;2.10;;;;;;;12.76;62.93;98563.50;105874;1273;25595;-81
2022/05/30 08:42:55;;;;;;;6.30;2.10;;;;;;;13.22;62.27;98565.98;105991;1273;25756;-79
2022/05/30 08:46:57;;;;;;;6.00;1.80;;;;;;;13.20;62.32;98569.73;105977;1274;22543;-84
2022/05/30 08:49:48;;;;;;;7.50;2.30;;;;;;;13.35;62.22;98567.91;105997;1273;24265;-84
2022/05/30 08:53:18;;;;;;;11.50;2.90;;;;;;;13.58;62.30;98571.50;105829;1274;23186;-80
2022/05/30 08:56:10;;;;;;;9.30;2.60;;;;;;;13.81;62.58;98572.94;105992;1274;25236;-80
2022/05/30 08:59:49;;;;;;;9.00;2.40;;;;;;;14.14;62.61;98574.98;105911;1273;22540;-79
2022/05/30 09:03:24;;;;;;;;;;;;;;;;;;;;;
2022/05/30 09:06:30;;;;;;;8.10;2.10;;;;;;;14.91;62.23;98568.73;106193;1273;25259;-79
2022/05/30 09:09:54;;;;;;;;;;;;;;;;;;;;;
2022/05/30 09:13:47;;;;;;;;;;;;;;;;;;;;;
2022/05/30 09:16:51;;;;;;;7.10;1.90;;;;;;;15.51;62.00;98569.27;106180;1273;25242;-79
2022/05/30 09:19:44;;;;;;;;;;;;;;;;;;;;;
2022/05/30 09:23:07;;;;;;;5.70;1.40;;;;;;;16.33;62.18;98560.25;105999;1274;24255;-83
2022/05/30 09:26:48;;;;;;;5.30;1.70;;;;;;;16.80;61.61;98555.27;106069;1273;22577;-86
2022/05/30 09:30:11;;;;;;;6.30;1.70;;;;;;;17.17;61.65;98551.70;105965;1273;22535;-85
2022/05/30 09:33:40;;;;;;;8.00;1.70;;;;;;;17.40;61.00;98544.42;106029;1273;22733;-85
2022/05/30 09:36:46;;;;;;;5.10;1.70;;;;;;;17.53;60.78;98545.35;106030;1273;22541;-81
2022/05/30 09:39:57;;;;;;;;;;;;;;;;;;;;;
2022/05/30 09:43:00;;;;;;;5.50;1.60;;;;;;;17.21;60.05;98544.38;106007;1273;24219;-79
2022/05/30 09:46:26;;;;;;;;;;;;;;;;;;;;;
2022/05/30 09:49:25;;;;;;;3.20;1.00;;;;;;;17.41;60.47;98543.10;105613;1279;22555;-87
2022/05/30 09:52:04;;;;;;;3.00;0.90;;;;;;;17.54;60.66;98545.41;105574;1279;22565;-85
2022/05/30 09:54:56;;;;;;;2.90;0.90;;;;;;;17.72;60.65;98547.31;105621;1279;22742;-79
2022/05/30 09:58:02;;;;;;;5.60;1.30;;;;;;;17.85;60.48;98543.17;105576;1279;25242;-79
2022/05/30 10:00:56;;;;;;;4.10;1.20;;;;;;;17.89;59.83;98543.80;105676;1280;24304;-80
2022/05/30 10:03:37;;;;;;;3.60;0.80;;;;;;;17.84;60.17;98543.64;105620;1280;22764;-84
2022/05/30 10:06:33;;;;;;;2.80;0.80;;;;;;;17.98;60.07;98543.88;105522;1279;24259;-81
2022/05/30 10:09:23;;;;;;;3.00;1.00;;;;;;;18.04;59.75;98542.98;105620;1279;25519;-79
2022/05/30 10:12:01;;;;;;;2.20;0.80;;;;;;;18.09;59.66;98540.11;105719;1279;25229;-81
2022/05/30 10:14:34;;;;;;;2.40;0.80;;;;;;;18.16;59.68;98535.20;105617;1279;22557;-80
2022/05/30 10:17:31;;;;;;;;;;;;;;;;;;;;;
2022/05/30 10:20:08;;;;;;;2.10;0.70;;;;;;;18.36;59.93;98530.27;105733;1273;24247;-80
2022/05/30 10:30:23;;;;;;;2.80;0.90;;;;;;;18.29;58.76;98530.29;105639;1281;25317;-80
2022/05/30 10:33:32;;;;;;;3.60;1.00;;;;;;;18.34;58.94;98533.04;106039;1274;24473;-85
2022/05/30 10:36:30;;;;;;;2.20;0.70;;;;;;;18.44;59.51;98531.33;105929;1275;23843;-79
2022/05/30 10:39:38;;;;;;;2.10;0.80;;;;;;;18.70;59.00;98526.81;105980;1274;25682;-80
2022/05/30 10:42:31;;;;;;;2.60;0.70;;;;;;;18.76;59.15;98531.90;106192;1271;22586;-88
2022/05/30 10:45:13;;;;;;;2.70;0.60;;;;;;;18.97;59.16;98528.73;105999;1273;24403;-84
2022/05/30 10:47:52;;;;;;;2.60;0.80;;;;;;;19.15;58.91;98528.09;106129;1273;23542;-84
2022/05/30 10:50:52;;;;;;;2.40;0.70;;;;;;;19.20;58.54;98521.35;105998;1274;23951;-80
2022/05/30 10:53:50;;;;;;;2.30;0.70;;;;;;;19.25;58.47;98519.94;105940;1275;22705;-83
2022/05/30 10:56:54;;;;;;;3.30;0.80;;;;;;;19.22;58.74;98522.09;106102;1273;25294;-79
2022/05/30 10:59:32;;;;;;;2.30;0.70;;;;;;;19.04;58.24;98526.33;105932;1273;24240;-84
2022/05/30 11:02:11;;;;;;;3.30;0.70;;;;;;;18.71;57.75;98532.24;106037;1273;22576;-81
2022/05/30 11:05:44;;;;;;;2.50;0.60;;;;;;;18.36;57.83;98536.62;105902;1273;25273;-81
2022/05/30 11:09:02;;;;;;;2.10;0.60;;;;;;;17.95;57.51;98536.86;105898;1273;24393;-87
2022/05/30 11:12:09;;;;;;;3.00;0.80;;;;;;;17.50;57.86;98537.79;105970;1273;25288;-82
2022/05/30 11:15:05;;;;;;;3.10;0.80;;;;;;;17.32;58.17;98541.06;105918;1275;22734;-85
2022/05/30 11:17:58;;;;;;;4.00;1.00;;;;;;;17.21;57.96;98545.26;105951;1274;24272;-81
2022/05/30 11:21:50;;;;;;;1.90;0.80;;;;;;;17.19;58.27;98544.96;105894;1273;22777;-86
2022/05/30 11:24:33;;;;;;;2.70;0.80;;;;;;;17.31;58.09;98544.20;105921;1273;22848;-82
2022/05/30 11:27:52;;;;;;;1.90;0.70;;;;;;;17.50;58.15;98548.73;105939;1274;24300;-81
2022/05/30 11:30:41;;;;;;;2.00;0.70;;;;;;;17.84;58.00;98545.63;105886;1275;25353;-81
2022/05/30 11:33:37;;;;;;;3.00;0.90;;;;;;;18.04;57.61;98544.85;106216;1273;22539;-82
2022/05/30 11:36:36;;;;;;;4.10;1.30;;;;;;;18.06;57.63;98549.60;106016;1273;22570;-85
2022/05/30 11:39:24;;;;;;;5.30;1.20;;;;;;;17.90;57.07;98554.06;105982;1274;22677;-84
2022/05/30 11:42:12;;;;;;;8.20;1.30;;;;;;;17.50;56.55;98555.09;105806;1274;22538;-79
2022/05/30 11:45:02;;;;;;;;;;;;;;;;;;;;;
2022/05/30 11:47:34;;;;;;;3.80;1.10;;;;;;;16.48;56.04;98561.65;105891;1273;23074;-80
2022/05/30 11:50:49;;;;;;;6.30;1.60;;;;;;;16.10;56.65;98559.29;105934;1273;22554;-79
2022/05/30 11:53:53;;;;;;;6.50;1.40;;;;;;;16.19;57.01;98556.52;106038;1274;22704;-79
2022/05/30 11:56:47;;;;;;;5.10;1.40;;;;;;;16.27;57.11;98560.42;106018;1273;22538;-82
2022/05/30 11:59:56;;;;;;;7.20;1.60;;;;;;;16.46;57.10;98563.44;106151;1273;22540;-81
2022/05/30 12:03:37;;;;;;;;;;;;;;;;;;;;;
2022/05/30 12:06:52;;;;;;;5.70;1.30;;;;;;;17.30;56.80;98555.77;105477;1284;23326;-83
2022/05/30 12:09:42;;;;;;;5.10;1.10;;;;;;;17.44;56.20;98555.77;105401;1284;22715;-83
2022/05/30 12:12:33;;;;;;;3.00;0.90;;;;;;;17.38;56.27;98554.58;105437;1284;24260;-80
2022/05/30 12:15:41;;;;;;;3.40;1.00;;;;;;;17.45;56.21;98552.90;105239;1285;23209;-80
2022/05/30 12:24:42;;;;;;;;;;;;;;;;;;;;;
2022/05/30 12:27:33;;;;;;;3.80;1.20;;;;;;;17.72;55.87;98554.70;105479;1284;24236;-78
2022/05/30 12:30:02;;;;;;;3.20;0.70;;;;;;;17.67;55.61;98559.08;105157;1284;23206;-79
2022/05/30 12:32:34;;;;;;;3.70;1.00;;;;;;;17.58;55.66;98562.16;105142;1284;25515;-79
2022/05/30 12:35:03;;;;;;;3.30;0.90;;;;;;;17.38;55.34;98567.13;104855;1285;22546;-76
2022/05/30 12:37:51;;;;;;;3.10;0.80;;;;;;;16.94;54.99;98572.27;105013;1285;22628;-78
2022/05/30 12:40:55;;;;;;;4.00;0.80;;;;;;;16.58;55.89;98574.98;105364;1284;25406;-79
2022/05/30 12:43:47;;;;;;;3.90;0.90;;;;;;;16.56;56.13;98576.27;105439;1276;24171;-81
2022/05/30 12:46:21;;;;;;;3.70;0.80;;;;;;;16.62;56.04;98580.87;105908;1273;22805;-80
2022/05/30 12:48:57;;;;;;;4.90;1.20;;;;;;;16.76;56.25;98575.40;105929;1273;22579;-85
2022/05/30 12:52:02;;;;;;;2.60;0.80;;;;;;;16.99;56.00;98577.54;105981;1274;22550;-81
2022/05/30 12:54:55;;;;;;;4.30;1.00;;;;;;;17.18;55.96;98583.50;106136;1273;24249;-79
2022/05/30 12:57:54;;;;;;;5.30;1.10;;;;;;;17.52;55.84;98576.86;105946;1274;25647;-80
2022/05/30 13:01:47;;;;;;;3.80;1.20;;;;;;;17.62;55.35;98577.42;106575;1275;22607;-79
2022/05/30 13:04:38;;;;;;;3.80;1.10;;;;;;;17.70;55.32;98579.70;106260;1274;25446;-81
2022/05/30 13:07:30;;;;;;;3.30;1.00;;;;;;;17.54;55.13;98578.42;106875;1273;22544;-80
2022/05/30 13:11:12;;;;;;;3.50;1.00;;;;;;;17.26;54.78;98576.75;106310;1274;22550;-79
2022/05/30 13:14:28;;;;;;;4.60;1.30;;;;;;;17.00;55.17;98577.41;106361;1273;22756;-79
2022/05/30 13:17:36;;;;;;;;;;;;;;;;;;;;;
2022/05/30 13:24:52;;;;;;;2.40;0.80;;;;;;;17.76;54.93;98582.31;106194;1279;22581;-78
2022/05/30 13:27:46;;;;;;;;;;;;;;;;;;;;;
2022/05/30 13:31:26;;;;;;;;;;;;;;;;;;;;;
2022/05/30 13:34:24;;;;;;;2.60;0.90;;;;;;;17.78;54.78;98578.31;105330;1285;22906;-76
2022/05/30 13:37:56;;;;;;;;;;;;;;;;;;;;;
2022/05/30 13:40:46;;;;;;;4.60;0.90;;;;;;;17.52;53.99;98582.91;106087;1285;22617;-82
2022/05/30 13:43:34;;;;;;;3.30;0.90;;;;;;;17.32;54.28;98583.17;105145;1285;22563;-77
2022/05/30 13:46:22;;;;;;;5.60;1.10;;;;;;;17.16;53.77;98589.85;105279;1286;24436;-83
2022/05/30 13:49:00;;;;;;;6.20;1.70;;;;;;;16.74;54.24;98593.02;105055;1285;22661;-86
2022/05/30 13:51:45;;;;;;;3.10;1.00;;;;;;;16.51;54.47;98597.83;104849;1288;24284;-77
2022/05/30 13:55:10;;;;;;;3.70;1.20;;;;;;;16.48;54.17;98594.70;105031;1286;24417;-82
2022/05/30 13:57:52;;;;;;;;;;;;;;;;;;;;;
2022/05/30 14:00:38;;;;;;;4.10;0.90;;;;;;;17.13;54.31;98591.88;105333;1282;25231;-80
2022/05/30 14:03:09;;;;;;;3.30;0.90;;;;;;;17.21;53.30;98592.59;105489;1282;22571;-80
2022/05/30 14:06:42;;;;;;;;;;;;;;;;;;;;;
2022/05/30 14:09:57;;;;;;;3.10;0.80;;;;;;;17.10;54.03;98589.98;104733;1290;23181;-79
2022/05/30 14:12:35;;;;;;;2.90;0.90;;;;;;;17.09;53.69;98596.17;105021;1287;22545;-79
2022/05/30 14:15:08;;;;;;;3.10;0.70;;;;;;;17.08;53.93;98592.40;104973;1284;22573;-79
2022/05/30 14:17:36;;;;;;;4.70;0.90;;;;;;;16.87;53.19;98594.89;105253;1285;26484;-81
2022/05/30 14:20:33;;;;;;;5.20;1.00;;;;;;;16.65;53.77;98595.92;105070;1284;22703;-81
2022/05/30 14:23:38;;;;;;;2.50;0.80;;;;;;;17.10;54.19;98594.42;105304;1284;23545;-81
2022/05/30 14:27:04;;;;;;;2.80;0.90;;;;;;;17.38;53.40;98595.13;105450;1284;22804;-76
2022/05/30 14:30:13;;;;;;;;;;;;;;;;;;;;;
2022/05/30 14:33:48;;;;;;;;;;;;;;;;;;;;;
2022/05/30 14:37:01;;;;;;;2.10;1.00;;;;;;;18.21;52.49;98591.05;105136;1284;22607;-80
2022/05/30 14:40:09;;;;;;;5.90;1.30;;;;;;;17.68;52.09;98595.94;105524;1284;22605;-78
2022/05/30 14:42:53;;;;;;;2.80;1.00;;;;;;;17.41;52.60;98602.66;104927;1290;22596;-77
2022/05/30 14:45:31;;;;;;;3.80;1.10;;;;;;;17.70;52.79;98602.02;104934;1281;23963;-76
2022/05/30 14:48:44;;;;;;;4.30;0.90;;;;;;;17.50;52.11;98607.98;105519;1281;23810;-79
2022/05/30 14:52:01;;;;;;;3.00;0.80;;;;;;;17.25;52.59;98609.65;105596;1281;24209;-79
2022/05/30 14:55:10;;;;;;;2.90;1.00;;;;;;;17.42;52.59;98613.48;104901;1288;22557;-76
2022/05/30 14:57:51;;;;;;;5.30;1.00;;;;;;;17.92;52.62;98608.71;104882;1288;22582;-79
2022/05/30 15:00:40;;;;;;;3.20;1.10;;;;;;;18.38;52.42;98608.96;104915;1288;24218;-79
2022/05/30 15:06:02;;;;;;;18.30;5.70;;;;;;;18.65;51.75;98603.29;104556;1288;22555;-83
2022/05/30 15:08:55;;;;;;;;;;;;;;;;;;;;;
2022/05/30 15:12:23;;;;;;;9.50;2.70;;;;;;;18.03;52.02;98602.43;104329;1294;24216;-84
2022/05/30 15:15:29;;;;;;;3.00;1.30;;;;;;;17.78;52.21;98604.60;104579;1294;22557;-81
2022/05/30 15:17:56;;;;;;;4.80;1.10;;;;;;;17.40;51.96;98602.89;103717;1294;25385;-81
2022/05/30 15:20:37;;;;;;;2.90;1.10;;;;;;;17.19;52.06;98603.57;104515;1288;24266;-80
2022/05/30 15:23:09;;;;;;;3.40;1.20;;;;;;;17.08;51.96;98605.14;105317;1290;22563;-79
2022/05/30 15:26:14;;;;;;;;;;;;;;;;;;;;;
2022/05/30 15:29:01;;;;;;;4.60;1.20;;;;;;;17.08;52.30;98613.79;104866;1288;22569;-81
2022/05/30 15:31:34;;;;;;;5.20;1.60;;;;;;;17.29;52.55;98613.48;105283;1282;23094;-82
2022/05/30 15:34:35;;;;;;;6.20;2.50;;;;;;;17.43;52.31;98618.14;105829;1282;23969;-83
2022/05/30 15:37:26;;;;;;;9.70;3.10;;;;;;;17.43;52.02;98621.48;105619;1282;22548;-83
2022/05/30 15:40:29;;;;;;;5.10;1.40;;;;;;;17.36;52.13;98628.39;105324;1283;22729;-82
2022/05/30 15:43:08;;;;;;;4.30;1.10;;;;;;;17.16;51.90;98638.67;105492;1281;22554;-84
2022/05/30 15:45:36;;;;;;;20.40;3.50;;;;;;;16.92;51.80;98644.22;105389;1281;22565;-84
2022/05/30 15:48:39;;;;;;;8.50;1.80;;;;;;;16.66;51.77;98648.14;105694;1279;24441;-83
2022/05/30 15:51:08;;;;;;;4.70;1.00;;;;;;;16.36;51.74;98654.28;105401;1281;25203;-83
2022/05/30 16:01:02;;;;;;;4.40;0.80;;;;;;;15.69;51.96;98669.84;105834;1279;24490;-80
2022/05/30 16:03:59;;;;;;;;;;;;;;;;;;;;;
2022/05/30 16:06:53;;;;;;;2.30;0.80;;;;;;;15.43;51.91;98673.55;105737;1279;24232;-79
2022/05/30 16:09:42;;;;;;;3.60;1.20;;;;;;;15.32;51.73;98667.98;105328;1282;22539;-81
2022/05/30 16:12:47;;;;;;;3.10;0.90;;;;;;;15.22;51.88;98677.89;105539;1282;25374;-80
2022/05/30 16:15:47;;;;;;;4.80;1.10;;;;;;;15.11;51.75;98681.98;105371;1281;22578;-80
2022/05/30 16:19:13;;;;;;;3.10;0.90;;;;;;;15.07;52.16;98678.84;106166;1282;23946;-79
2022/05/30 16:22:02;;;;;;;9.50;1.50;;;;;;;15.02;52.09;98682.54;106340;1280;23215;-80
2022/05/30 16:25:00;;;;;;;;;;;;;;;;;;;;;
2022/05/30 16:28:05;;;;;;;4.40;1.80;;;;;;;15.12;52.48;98684.40;106015;1281;23501;-81
2022/05/30 16:30:48;;;;;;;5.70;1.60;;;;;;;15.04;52.29;98689.69;106304;1279;22728;-79
2022/05/30 16:33:28;;;;;;;4.40;1.40;;;;;;;14.99;52.54;98687.84;105927;1279;22591;-80
2022/05/30 16:36:27;;;;;;;;;;;;;;;;;;;;;
2022/05/30 16:39:21;;;;;;;6.70;1.60;;;;;;;14.88;52.65;98694.61;106037;1280;25359;-80
2022/05/30 16:42:14;;;;;;;4.60;1.40;;;;;;;14.82;52.80;98697.38;106335;1281;22726;-80
2022/05/30 16:44:58;;;;;;;4.30;1.40;;;;;;;14.70;52.82;98699.89;105959;1282;22588;-81
2022/05/30 16:48:02;;;;;;;;;;;;;;;;;;;;;
2022/05/30 16:50:54;;;;;;;5.90;1.40;;;;;;;14.50;52.54;98717.04;106040;1279;22843;-80
2022/05/30 16:53:49;;;;;;;7.70;1.50;;;;;;;14.35;52.64;98723.41;106450;1280;22560;-79
2022/05/30 16:57:02;;;;;;;;;;;;;;;;;;;;;
2022/05/30 16:59:51;;;;;;;5.00;1.80;;;;;;;13.95;52.76;98750.58;106168;1273;22678;-79
2022/05/30 17:02:51;;;;;;;;;;;;;;;;;;;;;
2022/05/30 17:05:48;;;;;;;;;;;;;;;;;;;;;